Stations météo

Publicité
Toulon/Ile du Levant, France (7678): Température de l'air & dewpoint: 11.12.2017 22:00:00 - 17.12.2017 22:00:00 (CET)Toulon/Ile du Levant, France (7678): Vitesse du vent & gusts: 11.12.2017 22:00:00 - 17.12.2017 22:00:00 (CET)Toulon/Ile du Levant, France (7678): Direction du vent: 11.12.2017 22:00:00 - 17.12.2017 22:00:00 (CET)Toulon/Ile du Levant, France (7678): reduced air pressure: 11.12.2017 22:00:00 - 17.12.2017 22:00:00 (CET)Toulon/Ile du Levant, France (7678): Quantités de précipitations: 11.12.2017 22:00:00 - 17.12.2017 22:00:00 (CET)
Date & Time tt [°C] td [°C] ff [km/h] ff [knt] fx [km/h] fx [knt] dd ppp [hPa] rr [mm]
17.12.2017 22:00:00 7,2 -2,5 13 7 28 15 NNW 1023,6 -
17.12.2017 21:00:00 7,5 -3,1 16 9 37 20 NNW 1023,1 0,0
17.12.2017 20:00:00 7,8 -2,8 21 11 39 21 N 1022,4 0,0
17.12.2017 19:00:00 8,1 -1,7 22 12 44 24 NW 1022,0 -
17.12.2017 18:00:00 8,6 -2,1 26 14 44 24 NW 1021,0 0,0
17.12.2017 17:00:00 9,3 -2,0 22 12 37 20 NW 1020,3 0,0
17.12.2017 16:00:00 10,7 -4,2 22 12 42 23 NW 1019,5 -
17.12.2017 15:00:00 10,9 -5,2 21 11 35 19 NW 1019,3 0,0
17.12.2017 14:00:00 10,9 -3,6 18 10 37 20 NW 1019,2 0,0
17.12.2017 13:00:00 10,5 -4,0 11 6 22 12 NW 1019,7 -
17.12.2017 12:00:00 9,9 -3,8 11 6 16 9 WNW 1020,0 0,0
17.12.2017 11:00:00 9,2 -2,7 9 5 22 12 NW 1020,3 0,0
17.12.2017 10:00:00 8,4 -2,6 15 8 22 12 NW 1019,6 -
17.12.2017 09:00:00 7,1 -2,1 4 2 22 12 WNW 1019,0 0,0
17.12.2017 08:00:00 7,3 -3,0 21 11 39 21 N 1018,3 0,0
17.12.2017 07:00:00 7,5 -1,2 21 11 34 18 NNW 1017,2 -
17.12.2017 06:00:00 7,5 -0,7 21 11 35 19 NNW 1016,4 0,0
17.12.2017 05:00:00 7,5 -0,7 18 10 31 17 NNW 1016,0 0,0
17.12.2017 04:00:00 7,7 -1,5 18 10 29 16 NNW 1016,0 -
17.12.2017 03:00:00 7,4 -1,6 18 10 28 15 NW 1015,8 0,0
17.12.2017 02:00:00 7,4 -2,1 15 8 24 13 NW 1015,2 0,0
17.12.2017 01:00:00 7,5 -1,5 15 8 31 17 NNW 1014,8 -
17.12.2017 00:00:00 7,7 -1,8 18 10 42 23 NNW 1014,7 0,0
16.12.2017 23:00:00 8,0 -2,6 28 15 44 24 NNW 1014,0 0,0
16.12.2017 22:00:00 8,2 -2,8 24 13 41 22 NNW 1013,6 -
16.12.2017 21:00:00 8,4 -2,9 24 13 44 24 NW 1013,3 0,0
16.12.2017 20:00:00 8,4 -2,9 26 14 39 21 WNW 1012,4 0,0
16.12.2017 19:00:00 8,6 -3,0 28 15 50 27 WNW 1011,9 -
16.12.2017 18:00:00 9,0 -2,0 39 21 54 29 WNW 1011,1 0,0
16.12.2017 17:00:00 9,8 -1,6 34 18 61 33 WNW 1010,7 0,0
16.12.2017 16:00:00 10,8 -1,3 39 21 61 33 WNW 1009,5 -
16.12.2017 15:00:00 11,6 -2,6 34 18 54 29 WNW 1008,5 0,0
16.12.2017 14:00:00 11,7 -0,8 29 16 48 26 NW 1007,8 0,0
16.12.2017 13:00:00 10,9 -0,6 34 18 54 29 WNW 1007,8 -
16.12.2017 12:00:00 9,9 -0,3 39 21 74 40 NW 1007,7 0,0
16.12.2017 11:00:00 8,8 -0,8 52 28 76 41 NW 1007,3 0,0
16.12.2017 10:00:00 8,1 -1,7 54 29 85 46 WNW 1006,6 -
16.12.2017 09:00:00 7,5 -1,5 55 30 81 44 WNW 1005,6 0,0
16.12.2017 08:00:00 6,9 -0,6 48 26 76 41 WNW 1005,7 0,0
16.12.2017 07:00:00 7,6 -0,9 55 30 81 44 WNW 1004,3 -
16.12.2017 06:00:00 7,8 -0,2 54 29 78 42 W 1003,8 0,0
16.12.2017 05:00:00 8,0 0,7 48 26 72 39 W 1003,7 0,0
16.12.2017 04:00:00 8,1 0,6 42 23 70 38 W 1004,7 -
16.12.2017 03:00:00 8,4 1,3 41 22 65 35 W 1004,9 0,0
16.12.2017 02:00:00 8,6 2,6 42 23 70 38 W 1004,1 0,0
16.12.2017 01:00:00 8,4 3,0 37 20 70 38 WNW 1003,6 -
16.12.2017 00:00:00 9,0 3,2 52 28 76 41 WNW 1003,4 0,0
15.12.2017 23:00:00 9,2 3,4 44 24 83 45 W 1003,1 0,0
15.12.2017 22:00:00 9,6 3,1 57 31 85 46 W 1003,2 -
15.12.2017 21:00:00 9,7 3,2 44 24 76 41 W 1003,4 0,0
15.12.2017 20:00:00 9,9 3,0 48 26 68 37 W 1003,2 0,0
15.12.2017 19:00:00 9,8 2,4 44 24 72 39 W 1002,4 -
15.12.2017 18:00:00 10,3 0,9 46 25 70 38 WNW 1002,2 0,0
15.12.2017 17:00:00 10,6 3,6 44 24 65 35 W 1001,2 0,0
15.12.2017 16:00:00 11,0 2,8 44 24 63 34 W 1000,7 -
15.12.2017 15:00:00 10,8 2,6 42 23 68 37 W 1000,5 0,0
15.12.2017 14:00:00 10,4 4,7 42 23 65 35 W 1001,0 0,0
15.12.2017 13:00:00 10,9 3,4 42 23 70 38 W 1000,8 -
15.12.2017 12:00:00 11,3 5,4 18 10 37 20 W 1002,1 0,0
15.12.2017 11:00:00 10,9 5,0 18 10 35 19 W 1003,1 0,0
15.12.2017 10:00:00 11,6 6,1 16 9 44 24 WNW 1003,0 -
15.12.2017 09:00:00 12,1 7,6 29 16 44 24 W 1002,9 0,0
15.12.2017 08:00:00 12,1 8,2 28 15 44 24 WSW 1002,6 0,0
15.12.2017 07:00:00 12,2 9,0 29 16 44 24 W 1002,8 -
15.12.2017 06:00:00 12,5 9,1 29 16 57 31 W 1003,4 0,0
15.12.2017 05:00:00 12,8 10,0 35 19 61 33 W 1004,3 0,0
15.12.2017 04:00:00 12,6 10,1 34 18 54 29 WSW 1005,0 -
15.12.2017 03:00:00 12,8 8,9 35 19 57 31 WSW 1005,7 0,0
15.12.2017 02:00:00 13,1 9,5 34 18 59 32 WSW 1006,4 0,0
15.12.2017 01:00:00 13,1 9,5 39 21 59 32 W 1007,0 -
15.12.2017 00:00:00 13,3 9,0 42 23 61 33 W 1007,9 0,0
14.12.2017 23:00:00 13,0 9,4 28 15 57 31 WSW 1008,2 0,0
14.12.2017 22:00:00 13,7 8,9 26 14 48 26 WSW 1009,0 -
14.12.2017 21:00:00 13,6 8,0 29 16 50 27 WSW 1009,5 0,0
14.12.2017 20:00:00 13,0 9,1 28 15 48 26 WSW 1010,0 0,0
14.12.2017 19:00:00 12,8 9,1 29 16 57 31 W 1010,3 -
14.12.2017 18:00:00 12,7 9,9 41 22 57 31 W 1010,2 0,0
14.12.2017 17:00:00 12,8 7,9 39 21 67 36 WSW 1010,4 0,0
14.12.2017 16:00:00 13,4 8,7 46 25 68 37 W 1010,0 -
14.12.2017 15:00:00 13,9 9,7 41 22 67 36 W 1009,8 0,0
14.12.2017 14:00:00 14,0 10,8 44 24 63 34 W 1010,0 0,0
14.12.2017 13:00:00 14,0 9,8 42 23 61 33 W 1010,9 -
14.12.2017 12:00:00 13,2 10,2 41 22 67 36 W 1012,0 0,0
14.12.2017 11:00:00 13,0 9,4 39 21 63 34 W 1013,0 0,0
14.12.2017 10:00:00 12,8 9,4 42 23 61 33 W 1012,8 -
14.12.2017 09:00:00 12,8 9,8 41 22 57 31 W 1012,5 0,0
14.12.2017 08:00:00 12,9 9,5 41 22 55 30 W 1011,9 0,0
14.12.2017 07:00:00 12,6 9,6 37 20 59 32 W 1012,2 -
14.12.2017 06:00:00 12,6 9,8 39 21 59 32 WSW 1011,5 0,0
14.12.2017 05:00:00 12,3 9,7 35 19 52 28 WSW 1011,7 0,0
14.12.2017 04:00:00 12,1 9,3 35 19 57 31 WSW 1013,0 -
14.12.2017 03:00:00 12,1 9,5 35 19 55 30 W 1013,7 0,0
14.12.2017 02:00:00 11,8 9,2 31 17 54 29 W 1014,1 0,0
14.12.2017 01:00:00 10,8 8,6 24 13 34 18 W 1015,0 -
14.12.2017 00:00:00 10,0 7,1 18 10 29 16 W 1015,9 0,0
13.12.2017 23:00:00 9,9 7,0 18 10 34 18 WNW 1016,6 0,0
13.12.2017 22:00:00 10,3 7,0 21 11 37 20 WSW 1016,4 -
13.12.2017 21:00:00 10,0 6,2 22 12 37 20 W 1017,3 0,0
13.12.2017 20:00:00 9,6 5,6 24 13 39 21 W 1017,6 0,0
13.12.2017 19:00:00 9,7 5,7 26 14 42 23 W 1017,5 -
13.12.2017 18:00:00 9,5 5,5 29 16 46 25 W 1018,2 0,0
13.12.2017 17:00:00 9,7 5,7 34 18 52 28 W 1018,4 0,0
13.12.2017 16:00:00 10,4 4,5 39 21 65 35 W 1018,4 -
13.12.2017 15:00:00 10,8 2,9 41 22 70 38 W 1018,5 0,0
13.12.2017 14:00:00 10,7 2,3 46 25 74 40 W 1018,6 0,0
13.12.2017 13:00:00 10,9 1,1 42 23 68 37 W 1018,4 -
13.12.2017 12:00:00 10,8 -0,4 44 24 61 33 W 1019,6 0,0
13.12.2017 11:00:00 10,7 0,7 34 18 61 33 W 1019,9 0,0
13.12.2017 10:00:00 9,7 -1,4 39 21 54 29 W 1019,6 -
13.12.2017 09:00:00 7,9 -1,9 26 14 46 25 WNW 1019,5 0,0
13.12.2017 08:00:00 7,7 -2,9 28 15 52 28 WNW 1018,9 0,0
13.12.2017 07:00:00 7,8 -4,0 24 13 41 22 WNW 1018,8 -
13.12.2017 06:00:00 8,1 -4,4 22 12 44 24 WNW 1017,7 0,0
13.12.2017 05:00:00 8,0 -5,5 37 20 50 27 WNW 1017,3 0,0
13.12.2017 04:00:00 7,9 -3,6 37 20 54 29 W 1017,3 -
13.12.2017 03:00:00 8,1 -1,4 42 23 61 33 WNW 1017,0 0,0
13.12.2017 02:00:00 8,1 -0,4 44 24 61 33 W 1016,5 0,0
13.12.2017 01:00:00 7,8 1,4 44 24 59 32 W 1016,3 -
13.12.2017 00:00:00 8,4 2,8 41 22 55 30 WNW 1016,2 0,0
12.12.2017 23:00:00 8,3 3,7 29 16 44 24 WNW 1015,8 0,0
12.12.2017 22:00:00 8,6 4,4 28 15 39 21 W 1015,5 -
12.12.2017 21:00:00 8,9 4,9 26 14 35 19 WNW 1015,4 0,0
12.12.2017 20:00:00 9,2 5,6 21 11 31 17 WNW 1014,9 0,0
12.12.2017 19:00:00 9,6 4,8 22 12 44 24 WNW 1014,3 -
12.12.2017 18:00:00 10,0 6,0 26 14 48 26 W 1013,6 0,0
12.12.2017 17:00:00 10,2 5,0 29 16 42 23 W 1013,3 0,0
12.12.2017 16:00:00 10,6 5,6 22 12 37 20 W 1012,8 -
12.12.2017 15:00:00 10,9 4,8 21 11 34 18 W 1012,3 0,0
12.12.2017 14:00:00 10,6 4,9 26 14 46 25 W 1011,8 0,0
12.12.2017 13:00:00 10,7 5,4 29 16 48 26 W 1011,5 -
12.12.2017 12:00:00 10,7 5,0 26 14 42 23 W 1011,4 0,0
12.12.2017 11:00:00 10,2 4,6 18 10 26 14 W 1011,5 0,0
12.12.2017 10:00:00 10,0 3,9 13 7 21 11 W 1011,1 -
12.12.2017 09:00:00 9,4 4,0 15 8 21 11 WNW 1010,2 0,0
12.12.2017 08:00:00 9,0 4,2 13 7 21 11 WNW 1009,2 0,0
12.12.2017 07:00:00 9,1 4,7 15 8 26 14 WNW 1008,1 -
12.12.2017 06:00:00 9,2 6,1 16 9 35 19 W 1006,8 0,0
12.12.2017 05:00:00 10,0 6,5 24 13 37 20 W 1005,7 0,0
12.12.2017 04:00:00 9,8 6,1 21 11 35 19 W 1005,4 -
12.12.2017 03:00:00 10,0 6,5 24 13 39 21 W 1004,8 0,0
12.12.2017 02:00:00 10,0 7,4 28 15 50 27 W 1003,5 0,0
12.12.2017 01:00:00 10,1 6,2 35 19 54 29 W 1002,5 -
12.12.2017 00:00:00 10,2 6,2 28 15 52 28 W 1001,4 0,0
11.12.2017 23:00:00 10,3 6,6 31 17 50 27 W 999,8 0,0
11.12.2017 22:00:00 10,6 8,5 34 18 50 27 W 998,2 -

tt = Température de l'air
td = dewpoint
ff = Vitesse du vent
fx = gusts
dd = Direction du vent
ppp = reduced air pressure
rr = Quantités de précipitations

stations d'obs. à proximité